Главная страница
METAR-TAF:

METAR-TAF

Аэропорты :

Кларксберг, Западная Виргиния, США

широта: 39-18-00N, долгота: 080-13-29W, высота над уровнем моря: 366 м

Текущие метеонаблюдения

Эта сводка был подготовлена 1 час и 16 минут назад, в 21:53 UTC
Ветер 4 Узел от северо-северо-восточный
Температура -2°C
Влажность 59%
Давление 1026 hPa
Видимость: 16.1 км
ясное небо

METAR: KCKB 132153Z 02004KT 10SM CLR M02/M09 A3030 RMK AO2 SLP274 T10221094

Время: 18:09 (23:09 UTC)

Прогноз

Эта сводка был подготовлена 5 часа и 37 минут назад, в 17:32 UTC
Прогноз действительный с 13-го 18 UTC до 14-го 18 UTC
Ветер 6 Узел переменных направлений
Видимость: 10 км
Отдельные облака на высоте 20000 фута

TAF: KCKB 131732Z 1318/1418 VRB06KT P6SM SCT200

Метеонаблюдения и прогнозы для более 4000 аэропортов (сводки METAR и TAF).

Имеющиеся станции представлены на карте желтыми и красными точками.

Чтобы увидеть название станции, наведите на нее мышь.

Затем щелкните, чтобы увидеть метеонаблюдения и метеопрогнозы.

Управление картой: чтобы увеличить масштаб, щелкните зеленые кнопки с черным крестиком; чтобы уменьшить масштаб, щелкните зеленую кнопку с тире; для просмотра соседних карт щелкайте зеленые стрелки.


METAR-TAF: